57°F Temp
55°F Dewpoint
94% Humidity
Temperature
MPH
0 KM/H
KTS
Calm
Due North

Wind Speed
Mostly Scattered
Clouds
Pressure 1017.62 (hPa) - 30.05 (in)
Visibility 8.7 (mi) - 14.0 (km)

Current Conditions
KSJC
Location 9(mi)
Metar :KSJC 221653Z 00000KT 9SM SCT008 BKN012 OVC030 14/13 A3005 RMK AO2 RAE37 SLP174 P0001 T01440128
Fri 22nd October 08:53 am

Airport
  Metar Aviation API Data Provided by https://www.checkwx.com/ PHP scripts by weather34.com ©2021